sensor_id;sensor_type;location;lat;lon;timestamp;P1;durP1;ratioP1;P2;durP2;ratioP2
40691;SDS011;26377;53.344;14.886;2022-07-22T00:01:17;11.10;;;8.85;;
40691;SDS011;26377;53.344;14.886;2022-07-22T00:03:46;14.15;;;8.88;;
40691;SDS011;26377;53.344;14.886;2022-07-22T00:06:13;12.13;;;9.80;;
40691;SDS011;26377;53.344;14.886;2022-07-22T00:08:41;12.23;;;9.85;;
40691;SDS011;26377;53.344;14.886;2022-07-22T00:11:12;12.18;;;9.75;;
40691;SDS011;26377;53.344;14.886;2022-07-22T00:13:40;16.50;;;10.08;;
40691;SDS011;26377;53.344;14.886;2022-07-22T00:16:07;14.87;;;9.83;;
40691;SDS011;26377;53.344;14.886;2022-07-22T00:18:35;13.90;;;9.40;;
40691;SDS011;26377;53.344;14.886;2022-07-22T00:21:03;13.03;;;9.53;;
40691;SDS011;26377;53.344;14.886;2022-07-22T00:23:31;11.00;;;9.78;;
40691;SDS011;26377;53.344;14.886;2022-07-22T00:26:00;12.05;;;9.03;;
40691;SDS011;26377;53.344;14.886;2022-07-22T00:28:29;10.32;;;9.25;;
40691;SDS011;26377;53.344;14.886;2022-07-22T00:31:00;12.33;;;10.00;;
40691;SDS011;26377;53.344;14.886;2022-07-22T00:33:29;14.38;;;9.95;;
40691;SDS011;26377;53.344;14.886;2022-07-22T00:35:57;14.50;;;10.08;;
40691;SDS011;26377;53.344;14.886;2022-07-22T00:38:24;12.13;;;10.30;;
40691;SDS011;26377;53.344;14.886;2022-07-22T00:40:52;11.03;;;9.78;;
40691;SDS011;26377;53.344;14.886;2022-07-22T00:43:22;12.53;;;10.13;;
40691;SDS011;26377;53.344;14.886;2022-07-22T00:45:49;12.88;;;10.10;;
40691;SDS011;26377;53.344;14.886;2022-07-22T00:48:18;11.68;;;10.35;;
40691;SDS011;26377;53.344;14.886;2022-07-22T00:50:46;11.22;;;9.63;;
40691;SDS011;26377;53.344;14.886;2022-07-22T00:53:13;12.47;;;10.40;;
40691;SDS011;26377;53.344;14.886;2022-07-22T00:55:46;10.65;;;9.40;;
40691;SDS011;26377;53.344;14.886;2022-07-22T00:58:16;11.85;;;9.85;;
40691;SDS011;26377;53.344;14.886;2022-07-22T01:00:45;11.80;;;10.05;;
40691;SDS011;26377;53.344;14.886;2022-07-22T01:03:14;15.75;;;10.28;;
40691;SDS011;26377;53.344;14.886;2022-07-22T01:05:44;13.83;;;10.40;;
40691;SDS011;26377;53.344;14.886;2022-07-22T01:08:13;14.65;;;10.93;;
40691;SDS011;26377;53.344;14.886;2022-07-22T01:10:42;13.05;;;10.28;;
40691;SDS011;26377;53.344;14.886;2022-07-22T01:13:11;13.53;;;11.40;;
40691;SDS011;26377;53.344;14.886;2022-07-22T01:15:41;13.93;;;10.15;;
40691;SDS011;26377;53.344;14.886;2022-07-22T01:18:09;13.85;;;9.65;;
40691;SDS011;26377;53.344;14.886;2022-07-22T01:23:07;11.50;;;9.55;;
40691;SDS011;26377;53.344;14.886;2022-07-22T01:25:35;11.80;;;9.60;;
40691;SDS011;26377;53.344;14.886;2022-07-22T01:28:02;10.78;;;9.55;;
40691;SDS011;26377;53.344;14.886;2022-07-22T01:30:30;10.72;;;9.43;;
40691;SDS011;26377;53.344;14.886;2022-07-22T01:32:59;12.03;;;9.80;;
40691;SDS011;26377;53.344;14.886;2022-07-22T01:35:28;12.20;;;9.10;;
40691;SDS011;26377;53.344;14.886;2022-07-22T01:38:03;15.53;;;9.85;;
40691;SDS011;26377;53.344;14.886;2022-07-22T01:43:01;22.60;;;9.78;;
40691;SDS011;26377;53.344;14.886;2022-07-22T01:45:29;31.87;;;11.65;;
40691;SDS011;26377;53.344;14.886;2022-07-22T01:47:57;24.65;;;10.98;;
40691;SDS011;26377;53.344;14.886;2022-07-22T01:50:24;12.50;;;9.78;;
40691;SDS011;26377;53.344;14.886;2022-07-22T01:52:54;15.05;;;10.03;;
40691;SDS011;26377;53.344;14.886;2022-07-22T01:55:25;28.40;;;11.95;;
40691;SDS011;26377;53.344;14.886;2022-07-22T01:57:54;34.05;;;13.20;;
40691;SDS011;26377;53.344;14.886;2022-07-22T02:00:29;31.45;;;13.00;;
40691;SDS011;26377;53.344;14.886;2022-07-22T02:03:02;25.10;;;10.80;;
40691;SDS011;26377;53.344;14.886;2022-07-22T02:05:32;14.80;;;10.90;;
40691;SDS011;26377;53.344;14.886;2022-07-22T02:08:08;13.38;;;9.63;;
40691;SDS011;26377;53.344;14.886;2022-07-22T02:10:55;11.73;;;9.08;;
40691;SDS011;26377;53.344;14.886;2022-07-22T02:13:26;14.70;;;10.25;;
40691;SDS011;26377;53.344;14.886;2022-07-22T02:15:57;9.68;;;8.60;;
40691;SDS011;26377;53.344;14.886;2022-07-22T02:18:26;11.10;;;9.20;;
40691;SDS011;26377;53.344;14.886;2022-07-22T02:20:56;12.03;;;9.00;;
40691;SDS011;26377;53.344;14.886;2022-07-22T02:23:26;12.80;;;8.43;;
40691;SDS011;26377;53.344;14.886;2022-07-22T02:25:53;14.65;;;9.60;;
40691;SDS011;26377;53.344;14.886;2022-07-22T02:28:24;12.10;;;9.10;;
40691;SDS011;26377;53.344;14.886;2022-07-22T02:30:51;12.00;;;9.05;;
40691;SDS011;26377;53.344;14.886;2022-07-22T02:33:19;11.43;;;9.00;;
40691;SDS011;26377;53.344;14.886;2022-07-22T02:35:47;11.95;;;9.20;;
40691;SDS011;26377;53.344;14.886;2022-07-22T02:38:14;13.55;;;9.25;;
40691;SDS011;26377;53.344;14.886;2022-07-22T02:40:42;11.35;;;8.88;;
40691;SDS011;26377;53.344;14.886;2022-07-22T02:43:09;11.83;;;8.73;;
40691;SDS011;26377;53.344;14.886;2022-07-22T02:45:37;12.00;;;8.90;;
40691;SDS011;26377;53.344;14.886;2022-07-22T02:48:05;10.45;;;8.80;;
40691;SDS011;26377;53.344;14.886;2022-07-22T02:50:32;9.20;;;8.15;;
40691;SDS011;26377;53.344;14.886;2022-07-22T02:53:03;13.70;;;8.85;;
40691;SDS011;26377;53.344;14.886;2022-07-22T02:55:34;10.53;;;9.18;;
40691;SDS011;26377;53.344;14.886;2022-07-22T02:58:05;12.30;;;9.43;;
40691;SDS011;26377;53.344;14.886;2022-07-22T03:00:34;9.93;;;8.93;;
40691;SDS011;26377;53.344;14.886;2022-07-22T03:03:07;11.00;;;8.85;;
40691;SDS011;26377;53.344;14.886;2022-07-22T03:05:35;11.78;;;10.00;;
40691;SDS011;26377;53.344;14.886;2022-07-22T03:08:15;12.70;;;9.90;;
40691;SDS011;26377;53.344;14.886;2022-07-22T03:10:45;17.73;;;10.88;;
40691;SDS011;26377;53.344;14.886;2022-07-22T03:13:14;11.85;;;9.95;;
40691;SDS011;26377;53.344;14.886;2022-07-22T03:18:13;15.85;;;9.88;;
40691;SDS011;26377;53.344;14.886;2022-07-22T03:20:42;11.78;;;10.40;;
40691;SDS011;26377;53.344;14.886;2022-07-22T03:23:10;14.47;;;9.65;;
40691;SDS011;26377;53.344;14.886;2022-07-22T03:25:37;12.65;;;10.23;;
40691;SDS011;26377;53.344;14.886;2022-07-22T03:28:05;16.87;;;11.30;;
40691;SDS011;26377;53.344;14.886;2022-07-22T03:30:33;12.82;;;10.93;;
40691;SDS011;26377;53.344;14.886;2022-07-22T03:33:01;16.50;;;11.28;;
40691;SDS011;26377;53.344;14.886;2022-07-22T03:35:31;15.00;;;10.72;;
40691;SDS011;26377;53.344;14.886;2022-07-22T03:38:03;12.60;;;11.35;;
40691;SDS011;26377;53.344;14.886;2022-07-22T03:40:38;13.22;;;11.30;;
40691;SDS011;26377;53.344;14.886;2022-07-22T03:43:08;15.28;;;11.63;;
40691;SDS011;26377;53.344;14.886;2022-07-22T03:45:39;14.10;;;10.80;;
40691;SDS011;26377;53.344;14.886;2022-07-22T03:48:11;12.47;;;10.72;;
40691;SDS011;26377;53.344;14.886;2022-07-22T03:50:41;12.70;;;11.08;;
40691;SDS011;26377;53.344;14.886;2022-07-22T03:53:09;13.03;;;10.48;;
40691;SDS011;26377;53.344;14.886;2022-07-22T03:55:38;15.18;;;10.48;;
40691;SDS011;26377;53.344;14.886;2022-07-22T03:58:07;11.63;;;10.15;;
40691;SDS011;26377;53.344;14.886;2022-07-22T04:00:36;13.25;;;9.35;;
40691;SDS011;26377;53.344;14.886;2022-07-22T04:03:07;9.65;;;8.65;;
40691;SDS011;26377;53.344;14.886;2022-07-22T04:05:36;10.65;;;9.55;;
40691;SDS011;26377;53.344;14.886;2022-07-22T04:08:07;13.68;;;9.73;;
40691;SDS011;26377;53.344;14.886;2022-07-22T04:10:36;9.50;;;8.48;;
40691;SDS011;26377;53.344;14.886;2022-07-22T04:13:03;12.07;;;9.33;;
40691;SDS011;26377;53.344;14.886;2022-07-22T04:15:32;10.88;;;8.98;;
40691;SDS011;26377;53.344;14.886;2022-07-22T04:18:02;11.75;;;9.55;;
40691;SDS011;26377;53.344;14.886;2022-07-22T04:20:31;10.20;;;8.95;;
40691;SDS011;26377;53.344;14.886;2022-07-22T04:23:03;10.50;;;9.13;;
40691;SDS011;26377;53.344;14.886;2022-07-22T04:25:31;11.53;;;9.28;;
40691;SDS011;26377;53.344;14.886;2022-07-22T04:28:01;14.00;;;9.65;;
40691;SDS011;26377;53.344;14.886;2022-07-22T04:30:28;10.03;;;9.05;;
40691;SDS011;26377;53.344;14.886;2022-07-22T04:32:56;11.43;;;10.03;;
40691;SDS011;26377;53.344;14.886;2022-07-22T04:35:25;12.07;;;10.43;;
40691;SDS011;26377;53.344;14.886;2022-07-22T04:38:05;13.43;;;10.10;;
40691;SDS011;26377;53.344;14.886;2022-07-22T04:40:34;10.65;;;9.55;;
40691;SDS011;26377;53.344;14.886;2022-07-22T04:43:02;11.40;;;10.20;;
40691;SDS011;26377;53.344;14.886;2022-07-22T04:45:30;13.00;;;9.68;;
40691;SDS011;26377;53.344;14.886;2022-07-22T04:47:57;11.73;;;9.88;;
40691;SDS011;26377;53.344;14.886;2022-07-22T04:50:25;11.68;;;9.63;;
40691;SDS011;26377;53.344;14.886;2022-07-22T04:52:54;13.38;;;9.90;;
40691;SDS011;26377;53.344;14.886;2022-07-22T04:55:22;11.40;;;10.03;;
40691;SDS011;26377;53.344;14.886;2022-07-22T04:57:50;11.45;;;9.88;;
40691;SDS011;26377;53.344;14.886;2022-07-22T05:00:20;10.58;;;9.45;;
40691;SDS011;26377;53.344;14.886;2022-07-22T05:02:55;10.38;;;9.20;;
40691;SDS011;26377;53.344;14.886;2022-07-22T05:05:22;10.05;;;9.05;;
40691;SDS011;26377;53.344;14.886;2022-07-22T05:07:53;10.85;;;9.15;;
40691;SDS011;26377;53.344;14.886;2022-07-22T05:10:22;10.00;;;9.00;;
40691;SDS011;26377;53.344;14.886;2022-07-22T05:12:50;10.25;;;8.38;;
40691;SDS011;26377;53.344;14.886;2022-07-22T05:15:21;12.07;;;9.33;;
40691;SDS011;26377;53.344;14.886;2022-07-22T05:17:51;11.90;;;9.05;;
40691;SDS011;26377;53.344;14.886;2022-07-22T05:20:20;13.85;;;9.65;;
40691;SDS011;26377;53.344;14.886;2022-07-22T05:22:50;9.78;;;8.65;;
40691;SDS011;26377;53.344;14.886;2022-07-22T05:25:19;13.60;;;8.90;;
40691;SDS011;26377;53.344;14.886;2022-07-22T05:27:51;9.48;;;8.50;;
40691;SDS011;26377;53.344;14.886;2022-07-22T05:30:23;11.38;;;8.75;;
40691;SDS011;26377;53.344;14.886;2022-07-22T05:32:51;11.68;;;8.58;;
40691;SDS011;26377;53.344;14.886;2022-07-22T05:35:23;10.82;;;8.45;;
40691;SDS011;26377;53.344;14.886;2022-07-22T05:37:54;9.88;;;8.83;;
40691;SDS011;26377;53.344;14.886;2022-07-22T05:40:22;11.63;;;8.60;;
40691;SDS011;26377;53.344;14.886;2022-07-22T05:42:49;12.80;;;8.73;;
40691;SDS011;26377;53.344;14.886;2022-07-22T05:45:17;9.53;;;8.48;;
40691;SDS011;26377;53.344;14.886;2022-07-22T05:47:46;12.43;;;8.08;;
40691;SDS011;26377;53.344;14.886;2022-07-22T05:50:15;11.15;;;7.95;;
40691;SDS011;26377;53.344;14.886;2022-07-22T05:55:17;9.63;;;7.95;;
40691;SDS011;26377;53.344;14.886;2022-07-22T05:57:46;9.20;;;8.10;;
40691;SDS011;26377;53.344;14.886;2022-07-22T06:00:17;7.85;;;7.05;;
40691;SDS011;26377;53.344;14.886;2022-07-22T06:02:47;13.53;;;7.40;;
40691;SDS011;26377;53.344;14.886;2022-07-22T06:05:18;11.28;;;7.45;;
40691;SDS011;26377;53.344;14.886;2022-07-22T06:07:47;11.15;;;7.45;;
40691;SDS011;26377;53.344;14.886;2022-07-22T06:10:19;9.65;;;8.08;;
40691;SDS011;26377;53.344;14.886;2022-07-22T06:12:49;8.83;;;7.28;;
40691;SDS011;26377;53.344;14.886;2022-07-22T06:15:16;8.30;;;6.83;;
40691;SDS011;26377;53.344;14.886;2022-07-22T06:17:44;9.65;;;7.40;;
40691;SDS011;26377;53.344;14.886;2022-07-22T06:20:11;8.98;;;6.92;;
40691;SDS011;26377;53.344;14.886;2022-07-22T06:22:39;9.78;;;7.65;;
40691;SDS011;26377;53.344;14.886;2022-07-22T06:25:07;8.95;;;7.83;;
40691;SDS011;26377;53.344;14.886;2022-07-22T06:27:36;8.30;;;6.30;;
40691;SDS011;26377;53.344;14.886;2022-07-22T06:30:05;8.43;;;6.70;;
40691;SDS011;26377;53.344;14.886;2022-07-22T06:32:35;9.28;;;7.30;;
40691;SDS011;26377;53.344;14.886;2022-07-22T06:35:03;7.42;;;6.25;;
40691;SDS011;26377;53.344;14.886;2022-07-22T06:37:32;8.05;;;6.30;;
40691;SDS011;26377;53.344;14.886;2022-07-22T06:40:04;7.17;;;6.37;;
40691;SDS011;26377;53.344;14.886;2022-07-22T06:42:36;9.60;;;7.42;;
40691;SDS011;26377;53.344;14.886;2022-07-22T06:45:23;7.62;;;6.70;;
40691;SDS011;26377;53.344;14.886;2022-07-22T06:47:52;7.85;;;5.92;;
40691;SDS011;26377;53.344;14.886;2022-07-22T06:50:19;6.70;;;5.83;;
40691;SDS011;26377;53.344;14.886;2022-07-22T06:52:48;6.87;;;6.17;;
40691;SDS011;26377;53.344;14.886;2022-07-22T06:55:18;8.60;;;6.20;;
40691;SDS011;26377;53.344;14.886;2022-07-22T06:57:49;6.87;;;5.55;;
40691;SDS011;26377;53.344;14.886;2022-07-22T07:00:23;7.67;;;5.90;;
40691;SDS011;26377;53.344;14.886;2022-07-22T07:03:08;8.10;;;6.03;;
40691;SDS011;26377;53.344;14.886;2022-07-22T07:05:36;8.35;;;6.12;;
40691;SDS011;26377;53.344;14.886;2022-07-22T07:08:06;7.53;;;6.23;;
40691;SDS011;26377;53.344;14.886;2022-07-22T07:10:35;7.00;;;5.62;;
40691;SDS011;26377;53.344;14.886;2022-07-22T07:13:04;6.83;;;5.22;;
40691;SDS011;26377;53.344;14.886;2022-07-22T07:15:44;6.12;;;5.53;;
40691;SDS011;26377;53.344;14.886;2022-07-22T07:18:11;7.08;;;5.90;;
40691;SDS011;26377;53.344;14.886;2022-07-22T07:20:39;6.37;;;5.50;;
40691;SDS011;26377;53.344;14.886;2022-07-22T07:23:10;9.60;;;5.70;;
40691;SDS011;26377;53.344;14.886;2022-07-22T07:25:41;10.35;;;5.90;;
40691;SDS011;26377;53.344;14.886;2022-07-22T07:28:11;7.93;;;5.67;;
40691;SDS011;26377;53.344;14.886;2022-07-22T07:30:44;9.00;;;5.80;;
40691;SDS011;26377;53.344;14.886;2022-07-22T07:33:13;9.95;;;6.37;;
40691;SDS011;26377;53.344;14.886;2022-07-22T07:35:40;7.20;;;6.40;;
40691;SDS011;26377;53.344;14.886;2022-07-22T07:38:11;7.62;;;5.97;;
40691;SDS011;26377;53.344;14.886;2022-07-22T07:40:40;7.05;;;5.72;;
40691;SDS011;26377;53.344;14.886;2022-07-22T07:43:10;7.80;;;5.87;;
40691;SDS011;26377;53.344;14.886;2022-07-22T07:45:39;8.50;;;5.28;;
40691;SDS011;26377;53.344;14.886;2022-07-22T07:48:07;6.28;;;5.67;;
40691;SDS011;26377;53.344;14.886;2022-07-22T07:50:36;7.72;;;4.95;;
40691;SDS011;26377;53.344;14.886;2022-07-22T07:53:06;6.80;;;5.23;;
40691;SDS011;26377;53.344;14.886;2022-07-22T07:55:34;5.90;;;5.22;;
40691;SDS011;26377;53.344;14.886;2022-07-22T07:58:06;7.30;;;4.60;;
40691;SDS011;26377;53.344;14.886;2022-07-22T08:00:34;7.58;;;4.60;;
40691;SDS011;26377;53.344;14.886;2022-07-22T08:03:05;8.03;;;3.95;;
40691;SDS011;26377;53.344;14.886;2022-07-22T08:10:34;6.78;;;4.15;;
40691;SDS011;26377;53.344;14.886;2022-07-22T08:13:05;5.45;;;3.90;;
40691;SDS011;26377;53.344;14.886;2022-07-22T08:15:40;7.12;;;4.37;;
40691;SDS011;26377;53.344;14.886;2022-07-22T08:18:21;7.65;;;4.40;;
40691;SDS011;26377;53.344;14.886;2022-07-22T08:20:48;7.08;;;3.77;;
40691;SDS011;26377;53.344;14.886;2022-07-22T08:23:16;7.10;;;3.92;;
40691;SDS011;26377;53.344;14.886;2022-07-22T08:25:46;6.65;;;4.10;;
40691;SDS011;26377;53.344;14.886;2022-07-22T08:28:14;7.00;;;4.47;;
40691;SDS011;26377;53.344;14.886;2022-07-22T08:30:42;4.33;;;3.85;;
40691;SDS011;26377;53.344;14.886;2022-07-22T08:33:12;5.67;;;4.00;;
40691;SDS011;26377;53.344;14.886;2022-07-22T08:35:40;4.97;;;3.47;;
40691;SDS011;26377;53.344;14.886;2022-07-22T08:38:08;6.67;;;3.90;;
40691;SDS011;26377;53.344;14.886;2022-07-22T08:40:36;6.37;;;3.85;;
40691;SDS011;26377;53.344;14.886;2022-07-22T08:43:07;5.22;;;3.80;;
40691;SDS011;26377;53.344;14.886;2022-07-22T08:45:36;6.22;;;4.00;;
40691;SDS011;26377;53.344;14.886;2022-07-22T08:48:06;7.80;;;4.43;;
40691;SDS011;26377;53.344;14.886;2022-07-22T08:50:53;4.55;;;3.92;;
40691;SDS011;26377;53.344;14.886;2022-07-22T08:53:25;6.55;;;4.35;;
40691;SDS011;26377;53.344;14.886;2022-07-22T08:55:54;4.65;;;3.40;;
40691;SDS011;26377;53.344;14.886;2022-07-22T08:58:22;5.53;;;3.80;;
40691;SDS011;26377;53.344;14.886;2022-07-22T09:01:03;7.58;;;4.03;;
40691;SDS011;26377;53.344;14.886;2022-07-22T09:03:46;4.15;;;2.85;;
40691;SDS011;26377;53.344;14.886;2022-07-22T09:06:25;4.78;;;3.40;;
40691;SDS011;26377;53.344;14.886;2022-07-22T09:08:58;4.75;;;3.10;;
40691;SDS011;26377;53.344;14.886;2022-07-22T09:11:44;5.40;;;3.25;;
40691;SDS011;26377;53.344;14.886;2022-07-22T09:14:16;5.12;;;3.58;;
40691;SDS011;26377;53.344;14.886;2022-07-22T09:16:46;5.30;;;3.60;;
40691;SDS011;26377;53.344;14.886;2022-07-22T09:19:33;4.58;;;3.25;;
40691;SDS011;26377;53.344;14.886;2022-07-22T09:22:07;19.30;;;3.80;;
40691;SDS011;26377;53.344;14.886;2022-07-22T09:24:48;7.87;;;3.30;;
40691;SDS011;26377;53.344;14.886;2022-07-22T09:27:24;3.90;;;3.30;;
40691;SDS011;26377;53.344;14.886;2022-07-22T09:30:17;5.05;;;3.50;;
40691;SDS011;26377;53.344;14.886;2022-07-22T09:32:50;5.20;;;3.35;;
40691;SDS011;26377;53.344;14.886;2022-07-22T09:35:38;4.17;;;3.22;;
40691;SDS011;26377;53.344;14.886;2022-07-22T09:38:08;5.20;;;3.65;;
40691;SDS011;26377;53.344;14.886;2022-07-22T09:40:38;4.65;;;2.87;;
40691;SDS011;26377;53.344;14.886;2022-07-22T09:43:13;4.15;;;3.42;;
40691;SDS011;26377;53.344;14.886;2022-07-22T09:45:44;6.72;;;3.33;;
40691;SDS011;26377;53.344;14.886;2022-07-22T09:48:17;3.52;;;3.08;;
40691;SDS011;26377;53.344;14.886;2022-07-22T09:50:54;3.72;;;2.92;;
40691;SDS011;26377;53.344;14.886;2022-07-22T09:53:41;5.67;;;3.77;;
40691;SDS011;26377;53.344;14.886;2022-07-22T09:56:12;8.05;;;3.30;;
40691;SDS011;26377;53.344;14.886;2022-07-22T09:58:43;5.28;;;2.87;;
40691;SDS011;26377;53.344;14.886;2022-07-22T10:01:15;8.00;;;3.12;;
40691;SDS011;26377;53.344;14.886;2022-07-22T10:03:45;6.78;;;2.90;;
40691;SDS011;26377;53.344;14.886;2022-07-22T10:06:15;5.72;;;3.70;;
40691;SDS011;26377;53.344;14.886;2022-07-22T10:08:43;5.58;;;3.37;;
40691;SDS011;26377;53.344;14.886;2022-07-22T10:11:12;3.67;;;3.00;;
40691;SDS011;26377;53.344;14.886;2022-07-22T10:13:43;4.95;;;3.30;;
40691;SDS011;26377;53.344;14.886;2022-07-22T10:16:12;3.70;;;3.02;;
40691;SDS011;26377;53.344;14.886;2022-07-22T10:18:43;5.28;;;3.15;;
40691;SDS011;26377;53.344;14.886;2022-07-22T10:21:16;4.62;;;3.37;;
40691;SDS011;26377;53.344;14.886;2022-07-22T10:26:48;4.10;;;3.45;;
40691;SDS011;26377;53.344;14.886;2022-07-22T10:29:30;5.05;;;3.65;;
40691;SDS011;26377;53.344;14.886;2022-07-22T10:32:41;3.95;;;3.05;;
40691;SDS011;26377;53.344;14.886;2022-07-22T10:37:41;4.35;;;3.05;;
40691;SDS011;26377;53.344;14.886;2022-07-22T10:40:17;4.60;;;3.25;;
40691;SDS011;26377;53.344;14.886;2022-07-22T10:48:22;3.65;;;3.00;;
40691;SDS011;26377;53.344;14.886;2022-07-22T10:53:41;3.42;;;2.83;;
40691;SDS011;26377;53.344;14.886;2022-07-22T11:01:46;3.10;;;2.52;;
40691;SDS011;26377;53.344;14.886;2022-07-22T11:04:20;3.42;;;2.50;;
40691;SDS011;26377;53.344;14.886;2022-07-22T11:06:55;4.47;;;2.30;;
40691;SDS011;26377;53.344;14.886;2022-07-22T11:09:30;2.70;;;2.50;;
40691;SDS011;26377;53.344;14.886;2022-07-22T11:12:01;3.37;;;2.85;;
40691;SDS011;26377;53.344;14.886;2022-07-22T11:17:00;4.35;;;2.67;;
40691;SDS011;26377;53.344;14.886;2022-07-22T11:19:37;4.85;;;3.02;;
40691;SDS011;26377;53.344;14.886;2022-07-22T11:24:38;7.45;;;2.92;;
40691;SDS011;26377;53.344;14.886;2022-07-22T11:27:18;3.60;;;2.60;;
40691;SDS011;26377;53.344;14.886;2022-07-22T11:29:43;4.55;;;2.80;;
40691;SDS011;26377;53.344;14.886;2022-07-22T11:32:18;2.65;;;2.33;;
40691;SDS011;26377;53.344;14.886;2022-07-22T11:34:49;6.17;;;3.15;;
40691;SDS011;26377;53.344;14.886;2022-07-22T11:37:18;3.77;;;3.17;;
40691;SDS011;26377;53.344;14.886;2022-07-22T11:39:49;3.40;;;3.10;;
40691;SDS011;26377;53.344;14.886;2022-07-22T11:42:19;4.72;;;3.35;;
40691;SDS011;26377;53.344;14.886;2022-07-22T11:44:46;4.05;;;3.02;;
40691;SDS011;26377;53.344;14.886;2022-07-22T11:47:13;5.85;;;3.50;;
40691;SDS011;26377;53.344;14.886;2022-07-22T11:49:41;14.20;;;4.00;;
40691;SDS011;26377;53.344;14.886;2022-07-22T11:52:09;7.90;;;3.80;;
40691;SDS011;26377;53.344;14.886;2022-07-22T11:54:42;8.30;;;3.83;;
40691;SDS011;26377;53.344;14.886;2022-07-22T11:57:13;4.70;;;3.75;;
40691;SDS011;26377;53.344;14.886;2022-07-22T12:02:09;4.55;;;3.12;;
40691;SDS011;26377;53.344;14.886;2022-07-22T12:04:41;4.67;;;2.90;;
40691;SDS011;26377;53.344;14.886;2022-07-22T12:07:11;4.05;;;3.00;;
40691;SDS011;26377;53.344;14.886;2022-07-22T12:09:39;4.03;;;2.95;;
40691;SDS011;26377;53.344;14.886;2022-07-22T12:12:08;4.40;;;2.85;;
40691;SDS011;26377;53.344;14.886;2022-07-22T12:14:43;3.27;;;2.60;;
40691;SDS011;26377;53.344;14.886;2022-07-22T12:17:14;3.92;;;2.90;;
40691;SDS011;26377;53.344;14.886;2022-07-22T12:19:43;3.10;;;2.67;;
40691;SDS011;26377;53.344;14.886;2022-07-22T12:22:12;4.65;;;3.10;;
40691;SDS011;26377;53.344;14.886;2022-07-22T12:24:59;4.53;;;2.92;;
40691;SDS011;26377;53.344;14.886;2022-07-22T12:27:30;3.70;;;3.08;;
40691;SDS011;26377;53.344;14.886;2022-07-22T12:32:46;3.83;;;3.42;;
40691;SDS011;26377;53.344;14.886;2022-07-22T12:35:14;3.85;;;2.70;;
40691;SDS011;26377;53.344;14.886;2022-07-22T12:37:42;6.08;;;3.02;;
40691;SDS011;26377;53.344;14.886;2022-07-22T12:40:18;3.22;;;2.90;;
40691;SDS011;26377;53.344;14.886;2022-07-22T12:43:00;4.60;;;2.72;;
40691;SDS011;26377;53.344;14.886;2022-07-22T12:45:37;4.97;;;2.95;;
40691;SDS011;26377;53.344;14.886;2022-07-22T12:48:06;4.80;;;2.80;;
40691;SDS011;26377;53.344;14.886;2022-07-22T12:53:13;3.70;;;2.67;;
40691;SDS011;26377;53.344;14.886;2022-07-22T12:55:48;6.28;;;2.55;;
40691;SDS011;26377;53.344;14.886;2022-07-22T12:58:18;3.85;;;2.77;;
40691;SDS011;26377;53.344;14.886;2022-07-22T13:00:51;2.40;;;2.20;;
40691;SDS011;26377;53.344;14.886;2022-07-22T13:03:22;3.12;;;2.37;;
40691;SDS011;26377;53.344;14.886;2022-07-22T13:05:57;2.90;;;2.52;;
40691;SDS011;26377;53.344;14.886;2022-07-22T13:08:28;6.33;;;2.27;;
40691;SDS011;26377;53.344;14.886;2022-07-22T13:10:56;2.98;;;2.65;;
40691;SDS011;26377;53.344;14.886;2022-07-22T13:13:24;4.75;;;2.80;;
40691;SDS011;26377;53.344;14.886;2022-07-22T13:15:51;3.10;;;2.80;;
40691;SDS011;26377;53.344;14.886;2022-07-22T13:18:19;3.33;;;2.45;;
40691;SDS011;26377;53.344;14.886;2022-07-22T13:20:47;6.25;;;2.55;;
40691;SDS011;26377;53.344;14.886;2022-07-22T13:23:15;6.95;;;2.80;;
40691;SDS011;26377;53.344;14.886;2022-07-22T13:25:42;6.05;;;2.80;;
40691;SDS011;26377;53.344;14.886;2022-07-22T13:28:10;5.47;;;2.50;;
40691;SDS011;26377;53.344;14.886;2022-07-22T13:30:39;3.55;;;2.70;;
40691;SDS011;26377;53.344;14.886;2022-07-22T13:33:06;3.58;;;2.83;;
40691;SDS011;26377;53.344;14.886;2022-07-22T13:35:34;3.87;;;3.12;;
40691;SDS011;26377;53.344;14.886;2022-07-22T13:38:06;2.95;;;2.35;;
40691;SDS011;26377;53.344;14.886;2022-07-22T13:40:33;6.35;;;2.75;;
40691;SDS011;26377;53.344;14.886;2022-07-22T13:43:00;3.05;;;2.50;;
40691;SDS011;26377;53.344;14.886;2022-07-22T13:45:28;3.08;;;2.47;;
40691;SDS011;26377;53.344;14.886;2022-07-22T13:47:58;3.02;;;2.02;;
40691;SDS011;26377;53.344;14.886;2022-07-22T13:50:26;3.35;;;1.80;;
40691;SDS011;26377;53.344;14.886;2022-07-22T13:52:55;4.60;;;1.80;;
40691;SDS011;26377;53.344;14.886;2022-07-22T13:55:22;5.60;;;2.10;;
40691;SDS011;26377;53.344;14.886;2022-07-22T13:57:50;2.45;;;1.90;;
40691;SDS011;26377;53.344;14.886;2022-07-22T14:00:18;2.92;;;1.70;;
40691;SDS011;26377;53.344;14.886;2022-07-22T14:02:45;1.35;;;1.22;;
40691;SDS011;26377;53.344;14.886;2022-07-22T14:05:14;2.30;;;1.35;;
40691;SDS011;26377;53.344;14.886;2022-07-22T14:07:42;2.52;;;1.60;;
40691;SDS011;26377;53.344;14.886;2022-07-22T14:10:11;3.75;;;1.30;;
40691;SDS011;26377;53.344;14.886;2022-07-22T14:12:40;2.83;;;1.40;;
40691;SDS011;26377;53.344;14.886;2022-07-22T14:15:09;2.33;;;1.30;;
40691;SDS011;26377;53.344;14.886;2022-07-22T14:17:36;3.95;;;1.22;;
40691;SDS011;26377;53.344;14.886;2022-07-22T14:20:05;2.08;;;1.30;;
40691;SDS011;26377;53.344;14.886;2022-07-22T14:22:34;2.47;;;1.30;;
40691;SDS011;26377;53.344;14.886;2022-07-22T14:25:03;1.25;;;1.10;;
40691;SDS011;26377;53.344;14.886;2022-07-22T14:27:31;2.40;;;0.98;;
40691;SDS011;26377;53.344;14.886;2022-07-22T14:30:03;2.17;;;1.10;;
40691;SDS011;26377;53.344;14.886;2022-07-22T14:32:32;1.50;;;1.05;;
40691;SDS011;26377;53.344;14.886;2022-07-22T14:35:01;1.20;;;1.10;;
40691;SDS011;26377;53.344;14.886;2022-07-22T14:39:59;1.52;;;1.25;;
40691;SDS011;26377;53.344;14.886;2022-07-22T14:42:27;2.35;;;1.47;;
40691;SDS011;26377;53.344;14.886;2022-07-22T14:44:54;1.37;;;1.10;;
40691;SDS011;26377;53.344;14.886;2022-07-22T14:47:21;1.95;;;1.10;;
40691;SDS011;26377;53.344;14.886;2022-07-22T14:49:49;2.47;;;1.30;;
40691;SDS011;26377;53.344;14.886;2022-07-22T14:52:19;1.67;;;1.17;;
40691;SDS011;26377;53.344;14.886;2022-07-22T14:54:47;1.42;;;1.02;;
40691;SDS011;26377;53.344;14.886;2022-07-22T14:57:15;4.30;;;1.07;;
40691;SDS011;26377;53.344;14.886;2022-07-22T14:59:42;2.70;;;1.20;;
40691;SDS011;26377;53.344;14.886;2022-07-22T15:02:10;4.25;;;1.30;;
40691;SDS011;26377;53.344;14.886;2022-07-22T15:04:37;1.55;;;1.10;;
40691;SDS011;26377;53.344;14.886;2022-07-22T15:07:04;3.62;;;1.42;;
40691;SDS011;26377;53.344;14.886;2022-07-22T15:09:31;2.62;;;1.12;;
40691;SDS011;26377;53.344;14.886;2022-07-22T15:11:59;3.25;;;1.32;;
40691;SDS011;26377;53.344;14.886;2022-07-22T15:14:27;4.45;;;1.50;;
40691;SDS011;26377;53.344;14.886;2022-07-22T15:16:55;2.22;;;1.20;;
40691;SDS011;26377;53.344;14.886;2022-07-22T15:21:53;2.65;;;1.50;;
40691;SDS011;26377;53.344;14.886;2022-07-22T15:24:21;3.17;;;1.65;;
40691;SDS011;26377;53.344;14.886;2022-07-22T15:26:51;4.03;;;1.52;;
40691;SDS011;26377;53.344;14.886;2022-07-22T15:29:21;3.62;;;1.80;;
40691;SDS011;26377;53.344;14.886;2022-07-22T15:31:50;4.07;;;1.70;;
40691;SDS011;26377;53.344;14.886;2022-07-22T15:34:19;7.15;;;1.70;;
40691;SDS011;26377;53.344;14.886;2022-07-22T15:36:46;6.08;;;1.90;;
40691;SDS011;26377;53.344;14.886;2022-07-22T15:39:14;3.55;;;1.72;;